Alta, Indiana
Current Conditions -  °F | °C
As of 5:55 PM on Tuesday 21 Oct 2014 (Local Time) from KPRG Reporting Station
Overcast Overcast  
Wind Chill: 13°   Ceiling: 5000
Heat Index: 13°   Visibility: 10mi
Dew Point:   Wind: 8mph
Humidity: 62%   Direction: 10°N
Pressure: 30.16"   Gusts: NA
Location:  39.7643°N, 87.4119°W
Report Text: KPRG 212155Z AUTO 01007KT 10SM SCT040 OVC050 13/06 A3016 RMK AO2 T01310060
Loading
Personal Weather Stations






























Interactive Weather Map
Tropical Storm Tracking
New forecast layout! Learn more

10-Day Weather Forecast

Advertisements
Track Severe Weather on mobile